sensor_id;sensor_type;location;lat;lon;timestamp;P1;durP1;ratioP1;P2;durP2;ratioP2
75441;SDS011;64019;48.312;14.226;2023-07-16T00:00:11;4.83;;;3.20;;
75441;SDS011;64019;48.312;14.226;2023-07-16T00:02:37;5.87;;;3.30;;
75441;SDS011;64019;48.312;14.226;2023-07-16T00:05:04;3.77;;;3.07;;
75441;SDS011;64019;48.312;14.226;2023-07-16T00:07:30;3.50;;;2.80;;
75441;SDS011;64019;48.312;14.226;2023-07-16T00:09:56;4.40;;;2.97;;
75441;SDS011;64019;48.312;14.226;2023-07-16T00:12:22;3.60;;;3.03;;
75441;SDS011;64019;48.312;14.226;2023-07-16T00:14:47;4.30;;;2.73;;
75441;SDS011;64019;48.312;14.226;2023-07-16T00:17:13;4.90;;;2.97;;
75441;SDS011;64019;48.312;14.226;2023-07-16T00:19:39;3.57;;;3.17;;
75441;SDS011;64019;48.312;14.226;2023-07-16T00:22:05;8.07;;;3.73;;
75441;SDS011;64019;48.312;14.226;2023-07-16T00:24:30;3.50;;;3.07;;
75441;SDS011;64019;48.312;14.226;2023-07-16T00:26:56;4.87;;;3.00;;
75441;SDS011;64019;48.312;14.226;2023-07-16T00:29:22;6.37;;;3.40;;
75441;SDS011;64019;48.312;14.226;2023-07-16T00:31:48;5.93;;;3.20;;
75441;SDS011;64019;48.312;14.226;2023-07-16T00:34:14;3.27;;;2.97;;
75441;SDS011;64019;48.312;14.226;2023-07-16T00:36:40;4.07;;;3.00;;
75441;SDS011;64019;48.312;14.226;2023-07-16T00:39:06;6.63;;;2.80;;
75441;SDS011;64019;48.312;14.226;2023-07-16T00:41:31;6.03;;;3.17;;
75441;SDS011;64019;48.312;14.226;2023-07-16T00:43:57;5.27;;;3.40;;
75441;SDS011;64019;48.312;14.226;2023-07-16T00:46:23;6.30;;;3.10;;
75441;SDS011;64019;48.312;14.226;2023-07-16T00:48:49;5.40;;;3.30;;
75441;SDS011;64019;48.312;14.226;2023-07-16T00:51:16;4.60;;;3.03;;
75441;SDS011;64019;48.312;14.226;2023-07-16T00:53:42;5.10;;;3.10;;
75441;SDS011;64019;48.312;14.226;2023-07-16T00:56:09;4.13;;;3.00;;
75441;SDS011;64019;48.312;14.226;2023-07-16T00:58:40;4.77;;;3.40;;
75441;SDS011;64019;48.312;14.226;2023-07-16T01:01:06;4.87;;;3.23;;
75441;SDS011;64019;48.312;14.226;2023-07-16T01:03:32;3.80;;;3.07;;
75441;SDS011;64019;48.312;14.226;2023-07-16T01:06:00;4.87;;;3.37;;
75441;SDS011;64019;48.312;14.226;2023-07-16T01:11:06;6.23;;;3.30;;
75441;SDS011;64019;48.312;14.226;2023-07-16T01:13:32;4.47;;;3.40;;
75441;SDS011;64019;48.312;14.226;2023-07-16T01:15:59;5.37;;;3.27;;
75441;SDS011;64019;48.312;14.226;2023-07-16T01:18:25;3.73;;;2.87;;
75441;SDS011;64019;48.312;14.226;2023-07-16T01:20:51;3.97;;;3.13;;
75441;SDS011;64019;48.312;14.226;2023-07-16T01:29:06;3.77;;;3.10;;
75441;SDS011;64019;48.312;14.226;2023-07-16T01:31:51;5.33;;;3.37;;
75441;SDS011;64019;48.312;14.226;2023-07-16T01:34:18;3.80;;;2.90;;
75441;SDS011;64019;48.312;14.226;2023-07-16T01:36:46;5.40;;;3.57;;
75441;SDS011;64019;48.312;14.226;2023-07-16T01:39:12;4.47;;;3.40;;
75441;SDS011;64019;48.312;14.226;2023-07-16T01:41:37;5.53;;;3.20;;
75441;SDS011;64019;48.312;14.226;2023-07-16T01:44:03;3.83;;;3.13;;
75441;SDS011;64019;48.312;14.226;2023-07-16T01:46:29;6.00;;;3.50;;
75441;SDS011;64019;48.312;14.226;2023-07-16T01:48:54;5.63;;;3.40;;
75441;SDS011;64019;48.312;14.226;2023-07-16T01:51:21;4.87;;;3.80;;
75441;SDS011;64019;48.312;14.226;2023-07-16T01:53:47;3.47;;;3.13;;
75441;SDS011;64019;48.312;14.226;2023-07-16T01:56:12;6.07;;;4.00;;
75441;SDS011;64019;48.312;14.226;2023-07-16T01:58:38;4.73;;;3.57;;
75441;SDS011;64019;48.312;14.226;2023-07-16T02:01:04;5.60;;;3.50;;
75441;SDS011;64019;48.312;14.226;2023-07-16T02:03:29;4.33;;;3.40;;
75441;SDS011;64019;48.312;14.226;2023-07-16T02:05:55;5.57;;;4.20;;
75441;SDS011;64019;48.312;14.226;2023-07-16T02:08:21;5.33;;;3.77;;
75441;SDS011;64019;48.312;14.226;2023-07-16T02:10:47;4.10;;;3.70;;
75441;SDS011;64019;48.312;14.226;2023-07-16T02:13:13;4.33;;;3.57;;
75441;SDS011;64019;48.312;14.226;2023-07-16T02:15:39;6.83;;;4.10;;
75441;SDS011;64019;48.312;14.226;2023-07-16T02:18:06;7.87;;;4.00;;
75441;SDS011;64019;48.312;14.226;2023-07-16T02:20:32;4.80;;;4.10;;
75441;SDS011;64019;48.312;14.226;2023-07-16T02:22:57;4.33;;;3.87;;
75441;SDS011;64019;48.312;14.226;2023-07-16T02:25:23;7.63;;;4.13;;
75441;SDS011;64019;48.312;14.226;2023-07-16T02:27:50;6.17;;;4.30;;
75441;SDS011;64019;48.312;14.226;2023-07-16T02:30:16;7.60;;;4.13;;
75441;SDS011;64019;48.312;14.226;2023-07-16T02:32:42;7.10;;;4.73;;
75441;SDS011;64019;48.312;14.226;2023-07-16T02:35:08;5.63;;;4.50;;
75441;SDS011;64019;48.312;14.226;2023-07-16T02:37:34;6.23;;;4.03;;
75441;SDS011;64019;48.312;14.226;2023-07-16T02:40:00;5.73;;;4.30;;
75441;SDS011;64019;48.312;14.226;2023-07-16T02:42:26;7.20;;;4.20;;
75441;SDS011;64019;48.312;14.226;2023-07-16T02:44:51;9.27;;;4.47;;
75441;SDS011;64019;48.312;14.226;2023-07-16T02:47:17;6.70;;;4.80;;
75441;SDS011;64019;48.312;14.226;2023-07-16T02:49:43;5.73;;;4.73;;
75441;SDS011;64019;48.312;14.226;2023-07-16T02:52:09;7.07;;;4.57;;
75441;SDS011;64019;48.312;14.226;2023-07-16T02:54:35;8.93;;;4.40;;
75441;SDS011;64019;48.312;14.226;2023-07-16T02:57:01;5.27;;;4.27;;
75441;SDS011;64019;48.312;14.226;2023-07-16T02:59:27;6.80;;;4.50;;
75441;SDS011;64019;48.312;14.226;2023-07-16T03:01:53;5.67;;;4.57;;
75441;SDS011;64019;48.312;14.226;2023-07-16T03:04:18;9.53;;;4.30;;
75441;SDS011;64019;48.312;14.226;2023-07-16T03:06:44;8.53;;;4.47;;
75441;SDS011;64019;48.312;14.226;2023-07-16T03:09:10;7.43;;;4.97;;
75441;SDS011;64019;48.312;14.226;2023-07-16T03:11:36;7.10;;;4.70;;
75441;SDS011;64019;48.312;14.226;2023-07-16T03:14:02;8.40;;;5.13;;
75441;SDS011;64019;48.312;14.226;2023-07-16T03:16:27;7.43;;;4.57;;
75441;SDS011;64019;48.312;14.226;2023-07-16T03:18:53;6.33;;;4.13;;
75441;SDS011;64019;48.312;14.226;2023-07-16T03:21:19;5.97;;;4.13;;
75441;SDS011;64019;48.312;14.226;2023-07-16T03:23:44;7.37;;;4.53;;
75441;SDS011;64019;48.312;14.226;2023-07-16T03:26:10;5.87;;;4.73;;
75441;SDS011;64019;48.312;14.226;2023-07-16T03:28:36;8.00;;;4.03;;
75441;SDS011;64019;48.312;14.226;2023-07-16T03:31:02;9.53;;;4.20;;
75441;SDS011;64019;48.312;14.226;2023-07-16T03:33:27;7.07;;;4.23;;
75441;SDS011;64019;48.312;14.226;2023-07-16T03:35:53;8.37;;;4.00;;
75441;SDS011;64019;48.312;14.226;2023-07-16T03:38:19;5.23;;;4.07;;
75441;SDS011;64019;48.312;14.226;2023-07-16T03:40:48;8.20;;;3.87;;
75441;SDS011;64019;48.312;14.226;2023-07-16T03:43:15;4.60;;;3.87;;
75441;SDS011;64019;48.312;14.226;2023-07-16T03:45:41;5.30;;;4.03;;
75441;SDS011;64019;48.312;14.226;2023-07-16T03:48:07;9.20;;;4.63;;
75441;SDS011;64019;48.312;14.226;2023-07-16T03:50:34;8.80;;;4.20;;
75441;SDS011;64019;48.312;14.226;2023-07-16T03:53:00;4.63;;;3.80;;
75441;SDS011;64019;48.312;14.226;2023-07-16T03:55:28;5.10;;;3.73;;
75441;SDS011;64019;48.312;14.226;2023-07-16T03:57:53;8.10;;;4.50;;
75441;SDS011;64019;48.312;14.226;2023-07-16T04:00:19;5.57;;;3.77;;
75441;SDS011;64019;48.312;14.226;2023-07-16T04:02:45;5.13;;;3.70;;
75441;SDS011;64019;48.312;14.226;2023-07-16T04:05:11;10.77;;;3.97;;
75441;SDS011;64019;48.312;14.226;2023-07-16T04:07:36;6.27;;;3.93;;
75441;SDS011;64019;48.312;14.226;2023-07-16T04:10:02;9.63;;;4.37;;
75441;SDS011;64019;48.312;14.226;2023-07-16T04:12:28;7.13;;;5.20;;
75441;SDS011;64019;48.312;14.226;2023-07-16T04:14:55;7.60;;;4.57;;
75441;SDS011;64019;48.312;14.226;2023-07-16T04:17:23;4.30;;;3.90;;
75441;SDS011;64019;48.312;14.226;2023-07-16T04:19:49;6.93;;;4.10;;
75441;SDS011;64019;48.312;14.226;2023-07-16T04:22:15;9.07;;;3.87;;
75441;SDS011;64019;48.312;14.226;2023-07-16T04:24:41;5.63;;;4.30;;
75441;SDS011;64019;48.312;14.226;2023-07-16T04:27:07;9.10;;;3.87;;
75441;SDS011;64019;48.312;14.226;2023-07-16T04:29:32;7.10;;;4.10;;
75441;SDS011;64019;48.312;14.226;2023-07-16T04:31:58;7.67;;;3.90;;
75441;SDS011;64019;48.312;14.226;2023-07-16T04:34:24;7.93;;;3.47;;
75441;SDS011;64019;48.312;14.226;2023-07-16T04:36:49;6.30;;;3.50;;
75441;SDS011;64019;48.312;14.226;2023-07-16T04:39:15;4.80;;;3.53;;
75441;SDS011;64019;48.312;14.226;2023-07-16T04:41:41;5.23;;;3.10;;
75441;SDS011;64019;48.312;14.226;2023-07-16T04:44:06;5.00;;;2.90;;
75441;SDS011;64019;48.312;14.226;2023-07-16T04:46:32;5.37;;;2.73;;
75441;SDS011;64019;48.312;14.226;2023-07-16T04:48:58;4.63;;;3.20;;
75441;SDS011;64019;48.312;14.226;2023-07-16T04:51:24;7.13;;;2.77;;
75441;SDS011;64019;48.312;14.226;2023-07-16T04:53:51;5.37;;;2.60;;
75441;SDS011;64019;48.312;14.226;2023-07-16T04:56:17;4.77;;;2.63;;
75441;SDS011;64019;48.312;14.226;2023-07-16T04:58:42;4.33;;;2.90;;
75441;SDS011;64019;48.312;14.226;2023-07-16T05:01:08;3.97;;;2.80;;
75441;SDS011;64019;48.312;14.226;2023-07-16T05:03:34;3.07;;;2.07;;
75441;SDS011;64019;48.312;14.226;2023-07-16T05:06:01;4.30;;;2.40;;
75441;SDS011;64019;48.312;14.226;2023-07-16T05:08:27;5.10;;;2.40;;
75441;SDS011;64019;48.312;14.226;2023-07-16T05:10:53;3.60;;;2.57;;
75441;SDS011;64019;48.312;14.226;2023-07-16T05:13:18;2.97;;;2.10;;
75441;SDS011;64019;48.312;14.226;2023-07-16T05:15:44;4.07;;;1.93;;
75441;SDS011;64019;48.312;14.226;2023-07-16T05:18:10;2.47;;;2.20;;
75441;SDS011;64019;48.312;14.226;2023-07-16T05:20:36;5.50;;;2.90;;
75441;SDS011;64019;48.312;14.226;2023-07-16T05:23:01;4.53;;;2.63;;
75441;SDS011;64019;48.312;14.226;2023-07-16T05:25:27;3.33;;;2.17;;
75441;SDS011;64019;48.312;14.226;2023-07-16T05:27:53;4.83;;;2.30;;
75441;SDS011;64019;48.312;14.226;2023-07-16T05:30:18;3.30;;;2.20;;
75441;SDS011;64019;48.312;14.226;2023-07-16T05:32:44;2.47;;;2.10;;
75441;SDS011;64019;48.312;14.226;2023-07-16T05:35:10;4.83;;;2.30;;
75441;SDS011;64019;48.312;14.226;2023-07-16T05:37:35;3.90;;;2.37;;
75441;SDS011;64019;48.312;14.226;2023-07-16T05:40:01;5.83;;;2.70;;
75441;SDS011;64019;48.312;14.226;2023-07-16T05:42:28;7.13;;;2.23;;
75441;SDS011;64019;48.312;14.226;2023-07-16T05:44:54;8.30;;;2.53;;
75441;SDS011;64019;48.312;14.226;2023-07-16T05:47:19;4.30;;;2.03;;
75441;SDS011;64019;48.312;14.226;2023-07-16T05:49:45;2.53;;;2.27;;
75441;SDS011;64019;48.312;14.226;2023-07-16T05:52:11;6.07;;;2.67;;
75441;SDS011;64019;48.312;14.226;2023-07-16T05:54:37;3.40;;;2.37;;
75441;SDS011;64019;48.312;14.226;2023-07-16T05:57:02;5.17;;;2.33;;
75441;SDS011;64019;48.312;14.226;2023-07-16T05:59:28;7.03;;;2.57;;
75441;SDS011;64019;48.312;14.226;2023-07-16T06:01:54;4.17;;;2.60;;
75441;SDS011;64019;48.312;14.226;2023-07-16T06:04:22;4.40;;;2.83;;
75441;SDS011;64019;48.312;14.226;2023-07-16T06:06:48;5.23;;;2.80;;
75441;SDS011;64019;48.312;14.226;2023-07-16T06:09:14;3.27;;;2.20;;
75441;SDS011;64019;48.312;14.226;2023-07-16T06:11:39;4.87;;;2.40;;
75441;SDS011;64019;48.312;14.226;2023-07-16T06:14:05;4.17;;;2.47;;
75441;SDS011;64019;48.312;14.226;2023-07-16T06:16:31;3.43;;;2.50;;
75441;SDS011;64019;48.312;14.226;2023-07-16T06:18:57;6.03;;;3.07;;
75441;SDS011;64019;48.312;14.226;2023-07-16T06:21:22;4.90;;;2.60;;
75441;SDS011;64019;48.312;14.226;2023-07-16T06:23:48;4.57;;;2.47;;
75441;SDS011;64019;48.312;14.226;2023-07-16T06:26:14;7.60;;;2.50;;
75441;SDS011;64019;48.312;14.226;2023-07-16T06:28:39;7.83;;;2.80;;
75441;SDS011;64019;48.312;14.226;2023-07-16T06:31:05;2.77;;;2.37;;
75441;SDS011;64019;48.312;14.226;2023-07-16T06:33:30;3.77;;;2.67;;
75441;SDS011;64019;48.312;14.226;2023-07-16T06:35:56;2.80;;;2.37;;
75441;SDS011;64019;48.312;14.226;2023-07-16T06:38:22;2.90;;;2.47;;
75441;SDS011;64019;48.312;14.226;2023-07-16T06:40:48;5.70;;;2.80;;
75441;SDS011;64019;48.312;14.226;2023-07-16T06:43:15;2.97;;;2.43;;
75441;SDS011;64019;48.312;14.226;2023-07-16T06:45:41;3.97;;;2.50;;
75441;SDS011;64019;48.312;14.226;2023-07-16T06:48:07;5.97;;;2.67;;
75441;SDS011;64019;48.312;14.226;2023-07-16T06:50:33;3.93;;;2.87;;
75441;SDS011;64019;48.312;14.226;2023-07-16T06:52:59;4.37;;;2.93;;
75441;SDS011;64019;48.312;14.226;2023-07-16T06:55:25;2.70;;;2.47;;
75441;SDS011;64019;48.312;14.226;2023-07-16T06:57:50;10.40;;;3.53;;
75441;SDS011;64019;48.312;14.226;2023-07-16T07:00:16;4.10;;;2.70;;
75441;SDS011;64019;48.312;14.226;2023-07-16T07:02:42;10.10;;;3.10;;
75441;SDS011;64019;48.312;14.226;2023-07-16T07:05:08;2.77;;;2.20;;
75441;SDS011;64019;48.312;14.226;2023-07-16T07:07:34;4.73;;;2.83;;
75441;SDS011;64019;48.312;14.226;2023-07-16T07:09:59;3.00;;;2.20;;
75441;SDS011;64019;48.312;14.226;2023-07-16T07:12:25;5.07;;;2.43;;
75441;SDS011;64019;48.312;14.226;2023-07-16T07:14:51;3.20;;;2.30;;
75441;SDS011;64019;48.312;14.226;2023-07-16T07:17:17;5.37;;;2.43;;
75441;SDS011;64019;48.312;14.226;2023-07-16T07:19:42;7.60;;;2.90;;
75441;SDS011;64019;48.312;14.226;2023-07-16T07:22:09;5.73;;;2.70;;
75441;SDS011;64019;48.312;14.226;2023-07-16T07:24:35;4.03;;;2.60;;
75441;SDS011;64019;48.312;14.226;2023-07-16T07:27:01;3.77;;;2.33;;
75441;SDS011;64019;48.312;14.226;2023-07-16T07:29:27;4.07;;;2.67;;
75441;SDS011;64019;48.312;14.226;2023-07-16T07:31:53;2.63;;;2.30;;
75441;SDS011;64019;48.312;14.226;2023-07-16T07:34:19;3.33;;;2.17;;
75441;SDS011;64019;48.312;14.226;2023-07-16T07:36:44;3.70;;;2.20;;
75441;SDS011;64019;48.312;14.226;2023-07-16T07:39:10;2.77;;;2.07;;
75441;SDS011;64019;48.312;14.226;2023-07-16T07:41:38;2.97;;;2.50;;
75441;SDS011;64019;48.312;14.226;2023-07-16T07:44:03;6.07;;;2.30;;
75441;SDS011;64019;48.312;14.226;2023-07-16T07:46:29;3.00;;;2.20;;
75441;SDS011;64019;48.312;14.226;2023-07-16T07:48:55;3.13;;;2.47;;
75441;SDS011;64019;48.312;14.226;2023-07-16T07:51:20;2.97;;;2.07;;
75441;SDS011;64019;48.312;14.226;2023-07-16T07:53:46;2.97;;;2.23;;
75441;SDS011;64019;48.312;14.226;2023-07-16T07:56:12;2.20;;;2.00;;
75441;SDS011;64019;48.312;14.226;2023-07-16T07:58:37;5.20;;;2.27;;
75441;SDS011;64019;48.312;14.226;2023-07-16T08:01:04;3.63;;;2.20;;
75441;SDS011;64019;48.312;14.226;2023-07-16T08:03:31;2.57;;;2.03;;
75441;SDS011;64019;48.312;14.226;2023-07-16T08:05:56;2.23;;;2.03;;
75441;SDS011;64019;48.312;14.226;2023-07-16T08:08:22;5.13;;;2.20;;
75441;SDS011;64019;48.312;14.226;2023-07-16T08:10:48;2.57;;;2.20;;
75441;SDS011;64019;48.312;14.226;2023-07-16T08:13:14;2.90;;;2.17;;
75441;SDS011;64019;48.312;14.226;2023-07-16T08:15:39;2.73;;;2.17;;
75441;SDS011;64019;48.312;14.226;2023-07-16T08:18:05;3.50;;;2.37;;
75441;SDS011;64019;48.312;14.226;2023-07-16T08:20:31;3.30;;;2.40;;
75441;SDS011;64019;48.312;14.226;2023-07-16T08:22:57;4.10;;;2.70;;
75441;SDS011;64019;48.312;14.226;2023-07-16T08:25:23;2.70;;;2.40;;
75441;SDS011;64019;48.312;14.226;2023-07-16T08:27:49;3.67;;;2.40;;
75441;SDS011;64019;48.312;14.226;2023-07-16T08:30:14;3.00;;;2.27;;
75441;SDS011;64019;48.312;14.226;2023-07-16T08:32:40;2.80;;;2.00;;
75441;SDS011;64019;48.312;14.226;2023-07-16T08:35:06;3.67;;;2.70;;
75441;SDS011;64019;48.312;14.226;2023-07-16T08:37:32;4.97;;;2.33;;
75441;SDS011;64019;48.312;14.226;2023-07-16T08:39:58;4.30;;;2.53;;
75441;SDS011;64019;48.312;14.226;2023-07-16T08:42:23;3.53;;;2.50;;
75441;SDS011;64019;48.312;14.226;2023-07-16T08:44:49;2.20;;;1.93;;
75441;SDS011;64019;48.312;14.226;2023-07-16T08:47:15;3.67;;;2.63;;
75441;SDS011;64019;48.312;14.226;2023-07-16T08:49:41;2.73;;;2.37;;
75441;SDS011;64019;48.312;14.226;2023-07-16T08:52:18;2.20;;;1.93;;
75441;SDS011;64019;48.312;14.226;2023-07-16T08:54:44;2.97;;;2.67;;
75441;SDS011;64019;48.312;14.226;2023-07-16T08:57:10;2.43;;;2.00;;
75441;SDS011;64019;48.312;14.226;2023-07-16T08:59:37;2.40;;;2.20;;
75441;SDS011;64019;48.312;14.226;2023-07-16T09:02:03;4.97;;;2.87;;
75441;SDS011;64019;48.312;14.226;2023-07-16T09:04:29;4.63;;;2.40;;
75441;SDS011;64019;48.312;14.226;2023-07-16T09:06:57;4.07;;;2.57;;
75441;SDS011;64019;48.312;14.226;2023-07-16T09:09:23;4.13;;;2.10;;
75441;SDS011;64019;48.312;14.226;2023-07-16T09:11:49;3.43;;;2.23;;
75441;SDS011;64019;48.312;14.226;2023-07-16T09:14:18;3.60;;;2.40;;
75441;SDS011;64019;48.312;14.226;2023-07-16T09:16:48;3.10;;;2.20;;
75441;SDS011;64019;48.312;14.226;2023-07-16T09:19:17;6.23;;;2.60;;
75441;SDS011;64019;48.312;14.226;2023-07-16T09:21:49;3.47;;;2.20;;
75441;SDS011;64019;48.312;14.226;2023-07-16T09:24:15;2.57;;;2.37;;
75441;SDS011;64019;48.312;14.226;2023-07-16T09:26:48;5.73;;;2.23;;
75441;SDS011;64019;48.312;14.226;2023-07-16T09:29:14;2.90;;;2.17;;
75441;SDS011;64019;48.312;14.226;2023-07-16T09:31:59;4.07;;;2.90;;
75441;SDS011;64019;48.312;14.226;2023-07-16T09:34:30;3.23;;;2.20;;
75441;SDS011;64019;48.312;14.226;2023-07-16T09:36:57;2.83;;;2.30;;
75441;SDS011;64019;48.312;14.226;2023-07-16T09:39:23;4.87;;;2.53;;
75441;SDS011;64019;48.312;14.226;2023-07-16T09:41:50;3.20;;;2.50;;
75441;SDS011;64019;48.312;14.226;2023-07-16T09:44:16;3.87;;;2.50;;
75441;SDS011;64019;48.312;14.226;2023-07-16T09:46:43;4.43;;;2.40;;
75441;SDS011;64019;48.312;14.226;2023-07-16T09:49:10;4.67;;;2.40;;
75441;SDS011;64019;48.312;14.226;2023-07-16T09:51:36;3.20;;;2.20;;
75441;SDS011;64019;48.312;14.226;2023-07-16T09:54:03;2.97;;;1.87;;
75441;SDS011;64019;48.312;14.226;2023-07-16T09:56:36;3.80;;;2.40;;
75441;SDS011;64019;48.312;14.226;2023-07-16T09:59:05;4.23;;;2.30;;
75441;SDS011;64019;48.312;14.226;2023-07-16T10:01:36;4.73;;;2.80;;
75441;SDS011;64019;48.312;14.226;2023-07-16T10:06:48;3.73;;;1.80;;
75441;SDS011;64019;48.312;14.226;2023-07-16T10:09:31;2.40;;;2.10;;
75441;SDS011;64019;48.312;14.226;2023-07-16T10:12:07;2.30;;;2.10;;
75441;SDS011;64019;48.312;14.226;2023-07-16T10:17:16;3.70;;;2.27;;
75441;SDS011;64019;48.312;14.226;2023-07-16T10:19:51;4.93;;;2.80;;
75441;SDS011;64019;48.312;14.226;2023-07-16T10:22:39;2.40;;;2.20;;
75441;SDS011;64019;48.312;14.226;2023-07-16T10:25:09;2.40;;;2.00;;
75441;SDS011;64019;48.312;14.226;2023-07-16T10:27:47;3.77;;;2.20;;
75441;SDS011;64019;48.312;14.226;2023-07-16T10:30:14;2.37;;;2.10;;
75441;SDS011;64019;48.312;14.226;2023-07-16T10:32:40;5.73;;;2.20;;
75441;SDS011;64019;48.312;14.226;2023-07-16T10:35:06;3.67;;;2.13;;
75441;SDS011;64019;48.312;14.226;2023-07-16T10:37:35;3.07;;;2.40;;
75441;SDS011;64019;48.312;14.226;2023-07-16T10:40:02;2.93;;;2.63;;
75441;SDS011;64019;48.312;14.226;2023-07-16T10:42:29;1.90;;;1.80;;
75441;SDS011;64019;48.312;14.226;2023-07-16T10:44:59;2.43;;;1.90;;
75441;SDS011;64019;48.312;14.226;2023-07-16T10:47:32;3.83;;;2.20;;
75441;SDS011;64019;48.312;14.226;2023-07-16T10:50:00;2.67;;;2.17;;
75441;SDS011;64019;48.312;14.226;2023-07-16T10:52:28;3.47;;;2.20;;
75441;SDS011;64019;48.312;14.226;2023-07-16T10:54:54;2.27;;;1.90;;
75441;SDS011;64019;48.312;14.226;2023-07-16T10:57:20;2.67;;;2.17;;
75441;SDS011;64019;48.312;14.226;2023-07-16T10:59:46;2.50;;;1.90;;
75441;SDS011;64019;48.312;14.226;2023-07-16T11:02:15;2.17;;;1.73;;
75441;SDS011;64019;48.312;14.226;2023-07-16T11:04:42;2.73;;;2.10;;
75441;SDS011;64019;48.312;14.226;2023-07-16T11:07:12;2.90;;;2.27;;
75441;SDS011;64019;48.312;14.226;2023-07-16T11:09:49;2.30;;;1.80;;
75441;SDS011;64019;48.312;14.226;2023-07-16T11:12:17;3.03;;;1.80;;
75441;SDS011;64019;48.312;14.226;2023-07-16T11:14:45;2.00;;;1.70;;
75441;SDS011;64019;48.312;14.226;2023-07-16T11:17:12;2.00;;;1.87;;
75441;SDS011;64019;48.312;14.226;2023-07-16T11:19:38;2.20;;;1.90;;
75441;SDS011;64019;48.312;14.226;2023-07-16T11:22:05;2.73;;;2.00;;
75441;SDS011;64019;48.312;14.226;2023-07-16T11:24:36;3.27;;;2.03;;
75441;SDS011;64019;48.312;14.226;2023-07-16T11:27:03;3.97;;;2.13;;
75441;SDS011;64019;48.312;14.226;2023-07-16T11:29:35;3.03;;;2.10;;
75441;SDS011;64019;48.312;14.226;2023-07-16T11:32:01;3.47;;;2.13;;
75441;SDS011;64019;48.312;14.226;2023-07-16T11:34:27;5.00;;;2.47;;
75441;SDS011;64019;48.312;14.226;2023-07-16T11:36:53;3.03;;;2.20;;
75441;SDS011;64019;48.312;14.226;2023-07-16T11:39:18;3.20;;;1.87;;
75441;SDS011;64019;48.312;14.226;2023-07-16T11:41:57;2.67;;;2.27;;
75441;SDS011;64019;48.312;14.226;2023-07-16T11:44:23;2.17;;;1.90;;
75441;SDS011;64019;48.312;14.226;2023-07-16T11:46:48;3.43;;;2.23;;
75441;SDS011;64019;48.312;14.226;2023-07-16T11:49:15;2.83;;;2.17;;
75441;SDS011;64019;48.312;14.226;2023-07-16T11:51:41;3.20;;;2.50;;
75441;SDS011;64019;48.312;14.226;2023-07-16T11:54:08;2.30;;;1.90;;
75441;SDS011;64019;48.312;14.226;2023-07-16T11:56:35;2.73;;;2.10;;
75441;SDS011;64019;48.312;14.226;2023-07-16T11:59:01;2.90;;;2.40;;
75441;SDS011;64019;48.312;14.226;2023-07-16T12:01:27;2.73;;;2.10;;
75441;SDS011;64019;48.312;14.226;2023-07-16T12:03:52;3.60;;;2.37;;
75441;SDS011;64019;48.312;14.226;2023-07-16T12:06:18;4.40;;;2.17;;
75441;SDS011;64019;48.312;14.226;2023-07-16T12:08:43;2.53;;;2.07;;
75441;SDS011;64019;48.312;14.226;2023-07-16T12:11:09;2.47;;;2.17;;
75441;SDS011;64019;48.312;14.226;2023-07-16T12:13:35;2.43;;;2.00;;
75441;SDS011;64019;48.312;14.226;2023-07-16T12:16:01;2.50;;;2.30;;
75441;SDS011;64019;48.312;14.226;2023-07-16T12:18:27;2.80;;;2.17;;
75441;SDS011;64019;48.312;14.226;2023-07-16T12:20:55;2.63;;;2.03;;
75441;SDS011;64019;48.312;14.226;2023-07-16T12:23:21;4.80;;;2.20;;
75441;SDS011;64019;48.312;14.226;2023-07-16T12:25:47;2.60;;;1.80;;
75441;SDS011;64019;48.312;14.226;2023-07-16T12:28:14;2.10;;;1.90;;
75441;SDS011;64019;48.312;14.226;2023-07-16T12:30:40;1.97;;;1.80;;
75441;SDS011;64019;48.312;14.226;2023-07-16T12:33:05;3.77;;;2.20;;
75441;SDS011;64019;48.312;14.226;2023-07-16T12:35:31;3.13;;;2.40;;
75441;SDS011;64019;48.312;14.226;2023-07-16T12:37:57;2.30;;;2.10;;
75441;SDS011;64019;48.312;14.226;2023-07-16T12:40:23;2.43;;;2.13;;
75441;SDS011;64019;48.312;14.226;2023-07-16T12:42:49;3.03;;;2.60;;
75441;SDS011;64019;48.312;14.226;2023-07-16T12:45:15;2.10;;;1.90;;
75441;SDS011;64019;48.312;14.226;2023-07-16T12:47:41;2.30;;;2.00;;
75441;SDS011;64019;48.312;14.226;2023-07-16T12:50:07;3.73;;;2.20;;
75441;SDS011;64019;48.312;14.226;2023-07-16T12:52:33;2.80;;;2.20;;
75441;SDS011;64019;48.312;14.226;2023-07-16T12:54:58;2.30;;;2.10;;
75441;SDS011;64019;48.312;14.226;2023-07-16T12:57:24;4.53;;;2.20;;
75441;SDS011;64019;48.312;14.226;2023-07-16T12:59:50;3.50;;;2.10;;
75441;SDS011;64019;48.312;14.226;2023-07-16T13:02:15;2.53;;;2.33;;
75441;SDS011;64019;48.312;14.226;2023-07-16T13:04:41;4.03;;;2.07;;
75441;SDS011;64019;48.312;14.226;2023-07-16T13:07:07;2.90;;;1.70;;
75441;SDS011;64019;48.312;14.226;2023-07-16T13:09:33;3.70;;;2.37;;
75441;SDS011;64019;48.312;14.226;2023-07-16T13:12:00;2.77;;;2.17;;
75441;SDS011;64019;48.312;14.226;2023-07-16T13:14:26;2.20;;;2.00;;
75441;SDS011;64019;48.312;14.226;2023-07-16T13:16:51;2.57;;;2.20;;
75441;SDS011;64019;48.312;14.226;2023-07-16T13:19:17;4.67;;;2.33;;
75441;SDS011;64019;48.312;14.226;2023-07-16T13:21:43;3.40;;;2.30;;
75441;SDS011;64019;48.312;14.226;2023-07-16T13:24:08;2.50;;;2.20;;
75441;SDS011;64019;48.312;14.226;2023-07-16T13:26:34;3.73;;;2.10;;
75441;SDS011;64019;48.312;14.226;2023-07-16T13:29:00;5.17;;;2.10;;
75441;SDS011;64019;48.312;14.226;2023-07-16T13:31:25;2.53;;;2.17;;
75441;SDS011;64019;48.312;14.226;2023-07-16T13:33:51;4.30;;;2.10;;
75441;SDS011;64019;48.312;14.226;2023-07-16T13:36:17;3.27;;;2.37;;
75441;SDS011;64019;48.312;14.226;2023-07-16T13:38:42;5.27;;;2.60;;
75441;SDS011;64019;48.312;14.226;2023-07-16T13:41:08;5.32;;;2.38;;
75441;SDS011;64019;48.312;14.226;2023-07-16T13:43:34;2.37;;;2.03;;
75441;SDS011;64019;48.312;14.226;2023-07-16T13:46:00;2.03;;;1.83;;
75441;SDS011;64019;48.312;14.226;2023-07-16T13:48:26;2.65;;;2.22;;
75441;SDS011;64019;48.312;14.226;2023-07-16T13:50:51;2.40;;;2.13;;
75441;SDS011;64019;48.312;14.226;2023-07-16T13:53:17;3.15;;;2.10;;
75441;SDS011;64019;48.312;14.226;2023-07-16T13:55:43;1.90;;;1.70;;
75441;SDS011;64019;48.312;14.226;2023-07-16T13:58:09;3.38;;;1.77;;
75441;SDS011;64019;48.312;14.226;2023-07-16T14:00:35;2.83;;;2.03;;
75441;SDS011;64019;48.312;14.226;2023-07-16T14:03:01;3.17;;;2.38;;
75441;SDS011;64019;48.312;14.226;2023-07-16T14:05:28;2.47;;;2.27;;
75441;SDS011;64019;48.312;14.226;2023-07-16T14:07:54;3.03;;;2.43;;
75441;SDS011;64019;48.312;14.226;2023-07-16T14:10:19;5.10;;;2.28;;
75441;SDS011;64019;48.312;14.226;2023-07-16T14:12:45;3.85;;;2.50;;
75441;SDS011;64019;48.312;14.226;2023-07-16T14:15:11;5.70;;;2.93;;
75441;SDS011;64019;48.312;14.226;2023-07-16T14:17:36;3.83;;;2.53;;
75441;SDS011;64019;48.312;14.226;2023-07-16T14:20:02;5.53;;;2.20;;
75441;SDS011;64019;48.312;14.226;2023-07-16T14:22:28;4.03;;;2.28;;
75441;SDS011;64019;48.312;14.226;2023-07-16T14:24:54;3.30;;;2.38;;
75441;SDS011;64019;48.312;14.226;2023-07-16T14:27:20;3.50;;;2.60;;
75441;SDS011;64019;48.312;14.226;2023-07-16T14:29:46;4.32;;;2.80;;
75441;SDS011;64019;48.312;14.226;2023-07-16T14:32:12;3.83;;;2.65;;
75441;SDS011;64019;48.312;14.226;2023-07-16T14:34:38;4.05;;;2.70;;
75441;SDS011;64019;48.312;14.226;2023-07-16T14:37:04;3.20;;;2.90;;
75441;SDS011;64019;48.312;14.226;2023-07-16T14:39:30;5.22;;;2.90;;
75441;SDS011;64019;48.312;14.226;2023-07-16T14:41:55;5.38;;;3.47;;